sensor_id;sensor_type;location;lat;lon;timestamp;pressure;altitude;pressure_sealevel;temperature;humidity
50380;BME280;37474;59.468;18.040;2023-01-05T00:00:54;100429.03;;;-2.01;100.00
50380;BME280;37474;59.468;18.040;2023-01-05T00:03:23;100450.16;;;-1.87;100.00
50380;BME280;37474;59.468;18.040;2023-01-05T00:05:51;100459.47;;;-1.87;100.00
50380;BME280;37474;59.468;18.040;2023-01-05T00:08:19;100451.81;;;-1.86;100.00
50380;BME280;37474;59.468;18.040;2023-01-05T00:10:47;100430.75;;;-2.00;100.00
50380;BME280;37474;59.468;18.040;2023-01-05T00:13:33;100456.94;;;-1.89;100.00
50380;BME280;37474;59.468;18.040;2023-01-05T00:16:18;100466.22;;;-1.83;100.00
50380;BME280;37474;59.468;18.040;2023-01-05T00:19:04;100463.69;;;-1.83;100.00
50380;BME280;37474;59.468;18.040;2023-01-05T00:21:50;100410.47;;;-2.17;100.00
50380;BME280;37474;59.468;18.040;2023-01-05T00:24:35;100465.38;;;-1.90;100.00
50380;BME280;37474;59.468;18.040;2023-01-05T00:27:03;100458.63;;;-1.88;100.00
50380;BME280;37474;59.468;18.040;2023-01-05T00:29:31;100462.03;;;-1.89;100.00
50380;BME280;37474;59.468;18.040;2023-01-05T00:31:59;100420.66;;;-2.18;100.00
50380;BME280;37474;59.468;18.040;2023-01-05T00:34:28;100473.03;;;-1.88;100.00
50380;BME280;37474;59.468;18.040;2023-01-05T00:36:56;100459.47;;;-1.89;100.00
50380;BME280;37474;59.468;18.040;2023-01-05T00:39:24;100461.19;;;-1.95;100.00
50380;BME280;37474;59.468;18.040;2023-01-05T00:41:52;100460.34;;;-1.93;100.00
50380;BME280;37474;59.468;18.040;2023-01-05T00:44:20;100459.47;;;-1.87;100.00
50380;BME280;37474;59.468;18.040;2023-01-05T00:46:48;100467.91;;;-1.80;100.00
50380;BME280;37474;59.468;18.040;2023-01-05T00:49:15;100484.03;;;-1.83;100.00
50380;BME280;37474;59.468;18.040;2023-01-05T00:51:45;100469.63;;;-1.82;100.00
50380;BME280;37474;59.468;18.040;2023-01-05T00:54:13;100473.84;;;-1.83;100.00
50380;BME280;37474;59.468;18.040;2023-01-05T00:56:41;100472.97;;;-1.83;100.00
50380;BME280;37474;59.468;18.040;2023-01-05T00:59:08;100434.16;;;-2.07;100.00
50380;BME280;37474;59.468;18.040;2023-01-05T01:01:36;100451.09;;;-2.07;100.00
50380;BME280;37474;59.468;18.040;2023-01-05T01:04:04;100472.16;;;-1.86;100.00
50380;BME280;37474;59.468;18.040;2023-01-05T01:06:32;100476.41;;;-1.89;100.00
50380;BME280;37474;59.468;18.040;2023-01-05T01:09:02;100472.19;;;-1.95;100.00
50380;BME280;37474;59.468;18.040;2023-01-05T01:11:30;100467.06;;;-1.86;100.00
50380;BME280;37474;59.468;18.040;2023-01-05T01:13:58;100429.94;;;-2.13;100.00
50380;BME280;37474;59.468;18.040;2023-01-05T01:16:26;100480.63;;;-1.90;100.00
50380;BME280;37474;59.468;18.040;2023-01-05T01:18:55;100473.88;;;-1.88;100.00
50380;BME280;37474;59.468;18.040;2023-01-05T01:21:29;100480.63;;;-1.87;100.00
50380;BME280;37474;59.468;18.040;2023-01-05T01:23:57;100478.09;;;-1.85;100.00
50380;BME280;37474;59.468;18.040;2023-01-05T01:26:27;100469.63;;;-1.86;100.00
50380;BME280;37474;59.468;18.040;2023-01-05T01:28:55;100476.44;;;-1.92;100.00
50380;BME280;37474;59.468;18.040;2023-01-05T01:31:23;100431.63;;;-2.13;100.00
50380;BME280;37474;59.468;18.040;2023-01-05T01:33:51;100473.03;;;-1.91;100.00
50380;BME280;37474;59.468;18.040;2023-01-05T01:36:19;100478.91;;;-1.84;100.00
50380;BME280;37474;59.468;18.040;2023-01-05T01:38:47;100430.75;;;-2.04;100.00
50380;BME280;37474;59.468;18.040;2023-01-05T01:41:14;100485.69;;;-1.83;100.00
50380;BME280;37474;59.468;18.040;2023-01-05T01:43:45;100446.88;;;-2.15;100.00
50380;BME280;37474;59.468;18.040;2023-01-05T01:46:15;100494.19;;;-1.88;100.00
50380;BME280;37474;59.468;18.040;2023-01-05T01:48:45;100485.72;;;-1.87;100.00
50380;BME280;37474;59.468;18.040;2023-01-05T01:51:18;100493.34;;;-1.87;100.00
50380;BME280;37474;59.468;18.040;2023-01-05T01:53:49;100455.31;;;-2.08;100.00
50380;BME280;37474;59.468;18.040;2023-01-05T01:56:21;100492.50;;;-1.95;100.00
50380;BME280;37474;59.468;18.040;2023-01-05T01:58:52;100495.06;;;-1.95;100.00
50380;BME280;37474;59.468;18.040;2023-01-05T02:01:20;100494.22;;;-1.92;100.00
50380;BME280;37474;59.468;18.040;2023-01-05T02:03:49;100495.06;;;-1.96;100.00
50380;BME280;37474;59.468;18.040;2023-01-05T02:06:16;100496.75;;;-1.94;100.00
50380;BME280;37474;59.468;18.040;2023-01-05T02:08:45;100495.94;;;-1.97;100.00
50380;BME280;37474;59.468;18.040;2023-01-05T02:11:32;100473.09;;;-2.05;100.00
50380;BME280;37474;59.468;18.040;2023-01-05T02:14:14;100469.69;;;-2.02;100.00
50380;BME280;37474;59.468;18.040;2023-01-05T02:16:51;100494.22;;;-1.97;100.00
50380;BME280;37474;59.468;18.040;2023-01-05T02:20:02;100510.34;;;-1.99;100.00
50380;BME280;37474;59.468;18.040;2023-01-05T02:25:48;100501.00;;;-1.93;100.00
50380;BME280;37474;59.468;18.040;2023-01-05T02:28:37;100509.47;;;-1.92;100.00
50380;BME280;37474;59.468;18.040;2023-01-05T02:31:14;100476.53;;;-2.15;100.00
50380;BME280;37474;59.468;18.040;2023-01-05T02:34:00;100493.44;;;-2.13;100.00
50380;BME280;37474;59.468;18.040;2023-01-05T02:36:36;100500.25;;;-2.16;100.00
50380;BME280;37474;59.468;18.040;2023-01-05T02:39:11;100499.38;;;-2.15;100.00
50380;BME280;37474;59.468;18.040;2023-01-05T02:41:45;100504.44;;;-2.12;100.00
50380;BME280;37474;59.468;18.040;2023-01-05T02:44:16;100536.56;;;-1.93;100.00
50380;BME280;37474;59.468;18.040;2023-01-05T02:46:46;100529.78;;;-1.94;100.00
50380;BME280;37474;59.468;18.040;2023-01-05T02:49:16;100533.19;;;-2.01;100.00
50380;BME280;37474;59.468;18.040;2023-01-05T02:51:48;100533.22;;;-2.04;100.00
50380;BME280;37474;59.468;18.040;2023-01-05T02:54:22;100517.97;;;-2.07;100.00
50380;BME280;37474;59.468;18.040;2023-01-05T02:56:55;100511.22;;;-2.17;100.00
50380;BME280;37474;59.468;18.040;2023-01-05T02:59:27;100548.41;;;-1.95;100.00
50380;BME280;37474;59.468;18.040;2023-01-05T03:02:01;100551.81;;;-1.97;100.00
50380;BME280;37474;59.468;18.040;2023-01-05T03:04:33;100545.06;;;-2.04;100.00
50380;BME280;37474;59.468;18.040;2023-01-05T03:07:07;100548.41;;;-1.95;100.00
50380;BME280;37474;59.468;18.040;2023-01-05T03:09:38;100546.75;;;-1.99;100.00
50380;BME280;37474;59.468;18.040;2023-01-05T03:12:11;100549.28;;;-2.03;100.00
50380;BME280;37474;59.468;18.040;2023-01-05T03:15:04;100556.94;;;-2.05;100.00
50380;BME280;37474;59.468;18.040;2023-01-05T03:17:39;100542.56;;;-2.15;100.00
50380;BME280;37474;59.468;18.040;2023-01-05T03:20:11;100514.66;;;-2.30;100.00
50380;BME280;37474;59.468;18.040;2023-01-05T03:22:41;100569.59;;;-2.02;100.00
50380;BME280;37474;59.468;18.040;2023-01-05T03:25:27;100575.53;;;-2.03;100.00
50380;BME280;37474;59.468;18.040;2023-01-05T03:28:16;100563.72;;;-2.13;100.00
50380;BME280;37474;59.468;18.040;2023-01-05T03:31:09;100580.63;;;-2.06;100.00
50380;BME280;37474;59.468;18.040;2023-01-05T03:34:00;100578.09;;;-2.12;100.00
50380;BME280;37474;59.468;18.040;2023-01-05T03:36:49;100587.41;;;-2.05;100.00
50380;BME280;37474;59.468;18.040;2023-01-05T03:39:19;100580.63;;;-2.14;100.00
50380;BME280;37474;59.468;18.040;2023-01-05T03:41:52;100595.03;;;-2.13;100.00
50380;BME280;37474;59.468;18.040;2023-01-05T03:44:21;100605.19;;;-2.23;100.00
50380;BME280;37474;59.468;18.040;2023-01-05T03:46:50;100605.19;;;-2.09;100.00
50380;BME280;37474;59.468;18.040;2023-01-05T03:49:19;100618.75;;;-2.10;100.00
50380;BME280;37474;59.468;18.040;2023-01-05T03:51:47;100607.72;;;-2.11;100.00
50380;BME280;37474;59.468;18.040;2023-01-05T03:54:15;100623.81;;;-2.14;100.00
50380;BME280;37474;59.468;18.040;2023-01-05T03:56:43;100611.13;;;-2.18;100.00
50380;BME280;37474;59.468;18.040;2023-01-05T03:59:11;100623.81;;;-2.15;100.00
50380;BME280;37474;59.468;18.040;2023-01-05T04:01:39;100596.75;;;-2.21;100.00
50380;BME280;37474;59.468;18.040;2023-01-05T04:04:07;100603.53;;;-2.27;100.00
50380;BME280;37474;59.468;18.040;2023-01-05T04:06:36;100621.28;;;-2.12;100.00
50380;BME280;37474;59.468;18.040;2023-01-05T04:09:04;100622.97;;;-2.16;100.00
50380;BME280;37474;59.468;18.040;2023-01-05T04:11:32;100619.59;;;-2.18;99.80
50380;BME280;37474;59.468;18.040;2023-01-05T04:14:00;100634.81;;;-2.08;98.57
50380;BME280;37474;59.468;18.040;2023-01-05T04:16:28;100639.06;;;-2.18;98.62
50380;BME280;37474;59.468;18.040;2023-01-05T04:18:56;100631.44;;;-2.15;98.23
50380;BME280;37474;59.468;18.040;2023-01-05T04:21:23;100645.00;;;-2.19;98.24
50380;BME280;37474;59.468;18.040;2023-01-05T04:23:53;100610.31;;;-2.37;99.63
50380;BME280;37474;59.468;18.040;2023-01-05T04:26:20;100626.38;;;-2.30;98.42
50380;BME280;37474;59.468;18.040;2023-01-05T04:28:48;100641.63;;;-2.21;97.42
50380;BME280;37474;59.468;18.040;2023-01-05T04:31:16;100658.53;;;-2.16;98.05
50380;BME280;37474;59.468;18.040;2023-01-05T04:33:44;100663.63;;;-2.16;98.00
50380;BME280;37474;59.468;18.040;2023-01-05T04:36:12;100661.91;;;-2.24;98.79
50380;BME280;37474;59.468;18.040;2023-01-05T04:38:40;100666.16;;;-2.19;99.80
50380;BME280;37474;59.468;18.040;2023-01-05T04:41:09;100671.22;;;-2.14;99.81
50380;BME280;37474;59.468;18.040;2023-01-05T04:43:37;100669.53;;;-2.30;100.00
50380;BME280;37474;59.468;18.040;2023-01-05T04:46:05;100684.78;;;-2.24;100.00
50380;BME280;37474;59.468;18.040;2023-01-05T04:48:33;100695.78;;;-2.21;100.00
50380;BME280;37474;59.468;18.040;2023-01-05T04:51:01;100694.09;;;-2.26;100.00
50380;BME280;37474;59.468;18.040;2023-01-05T04:53:29;100709.34;;;-2.32;100.00
50380;BME280;37474;59.468;18.040;2023-01-05T04:55:59;100716.94;;;-2.32;100.00
50380;BME280;37474;59.468;18.040;2023-01-05T04:58:28;100726.25;;;-2.42;100.00
50380;BME280;37474;59.468;18.040;2023-01-05T05:00:56;100720.31;;;-2.44;100.00
50380;BME280;37474;59.468;18.040;2023-01-05T05:03:24;100726.22;;;-2.41;100.00
50380;BME280;37474;59.468;18.040;2023-01-05T05:05:58;100705.88;;;-2.56;100.00
50380;BME280;37474;59.468;18.040;2023-01-05T05:08:26;100688.09;;;-2.73;100.00
50380;BME280;37474;59.468;18.040;2023-01-05T05:10:54;100733.84;;;-2.50;100.00
50380;BME280;37474;59.468;18.040;2023-01-05T05:13:22;100736.41;;;-2.50;100.00
50380;BME280;37474;59.468;18.040;2023-01-05T05:15:51;100711.78;;;-2.68;100.00
50380;BME280;37474;59.468;18.040;2023-01-05T05:18:19;100739.75;;;-2.51;100.00
50380;BME280;37474;59.468;18.040;2023-01-05T05:20:50;100759.22;;;-2.48;100.00
50380;BME280;37474;59.468;18.040;2023-01-05T05:23:18;100762.59;;;-2.46;100.00
50380;BME280;37474;59.468;18.040;2023-01-05T05:25:49;100761.75;;;-2.47;100.00
50380;BME280;37474;59.468;18.040;2023-01-05T05:28:17;100770.22;;;-2.48;100.00
50380;BME280;37474;59.468;18.040;2023-01-05T05:30:46;100766.81;;;-2.57;100.00
50380;BME280;37474;59.468;18.040;2023-01-05T05:33:16;100785.47;;;-2.49;100.00
50380;BME280;37474;59.468;18.040;2023-01-05T05:35:44;100783.75;;;-2.50;100.00
50380;BME280;37474;59.468;18.040;2023-01-05T05:38:12;100790.53;;;-2.48;100.00
50380;BME280;37474;59.468;18.040;2023-01-05T05:40:40;100765.06;;;-2.75;100.00
50380;BME280;37474;59.468;18.040;2023-01-05T05:43:07;100804.88;;;-2.59;100.00
50380;BME280;37474;59.468;18.040;2023-01-05T05:45:35;100795.56;;;-2.58;100.00
50380;BME280;37474;59.468;18.040;2023-01-05T05:48:03;100800.66;;;-2.60;100.00
50380;BME280;37474;59.468;18.040;2023-01-05T05:50:33;100814.19;;;-2.58;100.00
50380;BME280;37474;59.468;18.040;2023-01-05T05:53:01;100818.41;;;-2.61;100.00
50380;BME280;37474;59.468;18.040;2023-01-05T05:55:29;100793.84;;;-2.76;100.00
50380;BME280;37474;59.468;18.040;2023-01-05T05:57:56;100796.31;;;-2.87;100.00
50380;BME280;37474;59.468;18.040;2023-01-05T06:00:24;100815.78;;;-2.78;100.00
50380;BME280;37474;59.468;18.040;2023-01-05T06:02:52;100836.13;;;-2.72;100.00
50380;BME280;37474;59.468;18.040;2023-01-05T06:05:20;100831.03;;;-2.75;100.00
50380;BME280;37474;59.468;18.040;2023-01-05T06:07:49;100844.53;;;-2.88;100.00
50380;BME280;37474;59.468;18.040;2023-01-05T06:10:17;100845.34;;;-2.89;100.00
50380;BME280;37474;59.468;18.040;2023-01-05T06:12:45;100847.09;;;-2.82;100.00
50380;BME280;37474;59.468;18.040;2023-01-05T06:15:13;100854.59;;;-2.95;100.00
50380;BME280;37474;59.468;18.040;2023-01-05T06:17:41;100853.81;;;-2.86;100.00
50380;BME280;37474;59.468;18.040;2023-01-05T06:20:09;100830.06;;;-3.02;100.00
50380;BME280;37474;59.468;18.040;2023-01-05T06:22:37;100861.44;;;-2.87;100.00
50380;BME280;37474;59.468;18.040;2023-01-05T06:25:07;100867.28;;;-2.98;100.00
50380;BME280;37474;59.468;18.040;2023-01-05T06:27:35;100871.56;;;-2.90;100.00
50380;BME280;37474;59.468;18.040;2023-01-05T06:30:04;100851.16;;;-3.09;100.00
50380;BME280;37474;59.468;18.040;2023-01-05T06:32:32;100874.91;;;-2.98;100.00
50380;BME280;37474;59.468;18.040;2023-01-05T06:34:59;100879.94;;;-3.04;100.00
50380;BME280;37474;59.468;18.040;2023-01-05T06:37:27;100891.75;;;-3.07;100.00
50380;BME280;37474;59.468;18.040;2023-01-05T06:39:55;100901.03;;;-3.06;100.00
50380;BME280;37474;59.468;18.040;2023-01-05T06:42:24;100913.72;;;-3.06;100.00
50380;BME280;37474;59.468;18.040;2023-01-05T06:44:52;100901.75;;;-3.27;100.00
50380;BME280;37474;59.468;18.040;2023-01-05T06:47:20;100931.50;;;-3.05;100.00
50380;BME280;37474;59.468;18.040;2023-01-05T06:49:48;100934.81;;;-3.12;100.00
50380;BME280;37474;59.468;18.040;2023-01-05T06:52:16;100922.03;;;-3.24;100.00
50380;BME280;37474;59.468;18.040;2023-01-05T06:54:44;100908.44;;;-3.35;100.00
50380;BME280;37474;59.468;18.040;2023-01-05T06:57:11;100947.44;;;-3.21;100.00
50380;BME280;37474;59.468;18.040;2023-01-05T06:59:41;100959.22;;;-3.26;100.00
50380;BME280;37474;59.468;18.040;2023-01-05T07:02:12;100962.53;;;-3.33;100.00
50380;BME280;37474;59.468;18.040;2023-01-05T07:04:40;100972.66;;;-3.33;100.00
50380;BME280;37474;59.468;18.040;2023-01-05T07:07:10;100976.03;;;-3.36;100.00
50380;BME280;37474;59.468;18.040;2023-01-05T07:09:39;100976.84;;;-3.40;100.00
50380;BME280;37474;59.468;18.040;2023-01-05T07:12:07;100930.91;;;-3.72;100.00
50380;BME280;37474;59.468;18.040;2023-01-05T07:14:35;100975.94;;;-3.45;100.00
50380;BME280;37474;59.468;18.040;2023-01-05T07:17:05;100986.91;;;-3.46;100.00
50380;BME280;37474;59.468;18.040;2023-01-05T07:19:32;100951.16;;;-3.75;100.00
50380;BME280;37474;59.468;18.040;2023-01-05T07:22:00;101000.31;;;-3.58;100.00
50380;BME280;37474;59.468;18.040;2023-01-05T07:24:28;100983.28;;;-3.71;100.00
50380;BME280;37474;59.468;18.040;2023-01-05T07:26:59;101017.09;;;-3.69;100.00
50380;BME280;37474;59.468;18.040;2023-01-05T07:29:35;101019.69;;;-3.63;100.00
50380;BME280;37474;59.468;18.040;2023-01-05T07:32:04;101020.41;;;-3.75;100.00
50380;BME280;37474;59.468;18.040;2023-01-05T07:34:32;101043.28;;;-3.67;100.00
50380;BME280;37474;59.468;18.040;2023-01-05T07:37:00;101036.53;;;-3.68;100.00
50380;BME280;37474;59.468;18.040;2023-01-05T07:39:28;101005.06;;;-3.88;100.00
50380;BME280;37474;59.468;18.040;2023-01-05T07:41:56;101010.94;;;-3.89;100.00
50380;BME280;37474;59.468;18.040;2023-01-05T07:44:24;101045.69;;;-3.78;100.00
50380;BME280;37474;59.468;18.040;2023-01-05T07:46:52;101058.41;;;-3.76;100.00
50380;BME280;37474;59.468;18.040;2023-01-05T07:49:21;101051.59;;;-3.80;100.00
50380;BME280;37474;59.468;18.040;2023-01-05T07:51:49;101061.84;;;-3.71;100.00
50380;BME280;37474;59.468;18.040;2023-01-05T07:54:17;101064.38;;;-3.68;100.00
50380;BME280;37474;59.468;18.040;2023-01-05T07:56:47;101070.91;;;-3.88;100.00
50380;BME280;37474;59.468;18.040;2023-01-05T07:59:15;101052.09;;;-4.06;100.00
50380;BME280;37474;59.468;18.040;2023-01-05T08:01:42;101078.38;;;-3.97;100.00
50380;BME280;37474;59.468;18.040;2023-01-05T08:04:10;101094.56;;;-3.86;100.00
50380;BME280;37474;59.468;18.040;2023-01-05T08:06:40;101088.59;;;-3.91;100.00
50380;BME280;37474;59.468;18.040;2023-01-05T08:09:08;101103.00;;;-3.86;100.00
50380;BME280;37474;59.468;18.040;2023-01-05T08:11:53;101116.50;;;-3.88;100.00
50380;BME280;37474;59.468;18.040;2023-01-05T08:14:21;101101.00;;;-4.10;100.00
50380;BME280;37474;59.468;18.040;2023-01-05T08:16:49;101134.25;;;-3.88;100.00
50380;BME280;37474;59.468;18.040;2023-01-05T08:19:17;101128.16;;;-4.00;100.00
50380;BME280;37474;59.468;18.040;2023-01-05T08:21:47;101140.06;;;-3.94;100.00
50380;BME280;37474;59.468;18.040;2023-01-05T08:24:15;101130.69;;;-4.00;100.00
50380;BME280;37474;59.468;18.040;2023-01-05T08:26:43;101143.25;;;-4.06;100.00
50380;BME280;37474;59.468;18.040;2023-01-05T08:29:11;101147.44;;;-4.09;100.00
50380;BME280;37474;59.468;18.040;2023-01-05T08:31:39;101154.28;;;-4.04;100.00
50380;BME280;37474;59.468;18.040;2023-01-05T08:34:07;101154.28;;;-4.04;100.00
50380;BME280;37474;59.468;18.040;2023-01-05T08:36:35;101124.41;;;-4.26;100.00
50380;BME280;37474;59.468;18.040;2023-01-05T08:39:04;101171.91;;;-4.10;100.00
50380;BME280;37474;59.468;18.040;2023-01-05T08:41:34;101152.25;;;-4.25;100.00
50380;BME280;37474;59.468;18.040;2023-01-05T08:44:04;101178.66;;;-4.09;100.00
50380;BME280;37474;59.468;18.040;2023-01-05T08:46:33;101152.00;;;-4.41;100.00
50380;BME280;37474;59.468;18.040;2023-01-05T08:49:03;101175.06;;;-4.23;100.00
50380;BME280;37474;59.468;18.040;2023-01-05T08:51:32;101200.63;;;-4.06;100.00
50380;BME280;37474;59.468;18.040;2023-01-05T08:54:00;101181.09;;;-4.15;100.00
50380;BME280;37474;59.468;18.040;2023-01-05T08:56:29;101218.44;;;-4.02;100.00
50380;BME280;37474;59.468;18.040;2023-01-05T08:59:04;101220.09;;;-4.04;100.00
50380;BME280;37474;59.468;18.040;2023-01-05T09:01:32;101180.13;;;-4.23;100.00
50380;BME280;37474;59.468;18.040;2023-01-05T09:04:00;101231.25;;;-3.92;100.00
50380;BME280;37474;59.468;18.040;2023-01-05T09:06:36;101231.25;;;-3.94;100.00
50380;BME280;37474;59.468;18.040;2023-01-05T09:09:05;101235.25;;;-4.07;100.00
50380;BME280;37474;59.468;18.040;2023-01-05T09:11:34;101248.69;;;-4.11;100.00
50380;BME280;37474;59.468;18.040;2023-01-05T09:14:02;101241.22;;;-4.02;100.00
50380;BME280;37474;59.468;18.040;2023-01-05T09:16:32;101254.56;;;-4.13;100.00
50380;BME280;37474;59.468;18.040;2023-01-05T09:19:20;101263.09;;;-4.07;100.00
50380;BME280;37474;59.468;18.040;2023-01-05T09:21:48;101239.94;;;-4.30;100.00
50380;BME280;37474;59.468;18.040;2023-01-05T09:24:17;101278.16;;;-4.14;100.00
50380;BME280;37474;59.468;18.040;2023-01-05T09:26:47;101268.78;;;-4.20;100.00
50380;BME280;37474;59.468;18.040;2023-01-05T09:29:15;101278.09;;;-4.17;100.00
50380;BME280;37474;59.468;18.040;2023-01-05T09:31:43;101285.69;;;-4.17;100.00
50380;BME280;37474;59.468;18.040;2023-01-05T09:34:11;101304.13;;;-4.26;100.00
50380;BME280;37474;59.468;18.040;2023-01-05T09:36:39;101304.88;;;-4.32;100.00
50380;BME280;37474;59.468;18.040;2023-01-05T09:39:07;101312.31;;;-4.39;100.00
50380;BME280;37474;59.468;18.040;2023-01-05T09:41:37;101316.50;;;-4.41;100.00
50380;BME280;37474;59.468;18.040;2023-01-05T09:44:12;101317.31;;;-4.42;100.00
50380;BME280;37474;59.468;18.040;2023-01-05T09:46:45;101324.94;;;-4.41;100.00
50380;BME280;37474;59.468;18.040;2023-01-05T09:49:15;101322.41;;;-4.41;100.00
50380;BME280;37474;59.468;18.040;2023-01-05T09:51:45;101329.06;;;-4.46;100.00
50380;BME280;37474;59.468;18.040;2023-01-05T09:54:15;101325.47;;;-4.56;100.00
50380;BME280;37474;59.468;18.040;2023-01-05T09:56:45;101326.31;;;-4.57;100.00
50380;BME280;37474;59.468;18.040;2023-01-05T09:59:36;101294.16;;;-4.62;100.00
50380;BME280;37474;59.468;18.040;2023-01-05T10:02:13;101323.13;;;-4.46;100.00
50380;BME280;37474;59.468;18.040;2023-01-05T10:04:43;101293.19;;;-4.69;100.00
50380;BME280;37474;59.468;18.040;2023-01-05T10:07:18;101337.50;;;-4.45;100.00
50380;BME280;37474;59.468;18.040;2023-01-05T10:09:47;101333.16;;;-4.53;100.00
50380;BME280;37474;59.468;18.040;2023-01-05T10:12:20;101348.25;;;-4.56;100.00
50380;BME280;37474;59.468;18.040;2023-01-05T10:15:11;101330.31;;;-4.68;100.00
50380;BME280;37474;59.468;18.040;2023-01-05T10:17:40;101346.44;;;-4.61;100.00
50380;BME280;37474;59.468;18.040;2023-01-05T10:20:19;101348.19;;;-4.60;100.00
50380;BME280;37474;59.468;18.040;2023-01-05T10:22:59;101361.09;;;-4.46;100.00
50380;BME280;37474;59.468;18.040;2023-01-05T10:25:34;101332.81;;;-4.69;100.00
50380;BME280;37474;59.468;18.040;2023-01-05T10:28:18;101362.69;;;-4.52;100.00
50380;BME280;37474;59.468;18.040;2023-01-05T10:30:56;101376.91;;;-4.57;100.00
50380;BME280;37474;59.468;18.040;2023-01-05T10:33:39;101378.59;;;-4.57;100.00
50380;BME280;37474;59.468;18.040;2023-01-05T10:36:34;101386.91;;;-4.63;100.00
50380;BME280;37474;59.468;18.040;2023-01-05T10:39:37;101396.34;;;-4.56;100.00
50380;BME280;37474;59.468;18.040;2023-01-05T10:42:19;101389.41;;;-4.66;100.00
50380;BME280;37474;59.468;18.040;2023-01-05T10:44:54;101400.25;;;-4.70;100.00
50380;BME280;37474;59.468;18.040;2023-01-05T10:47:26;101402.91;;;-4.65;100.00
50380;BME280;37474;59.468;18.040;2023-01-05T10:49:55;101403.66;;;-4.68;100.00
50380;BME280;37474;59.468;18.040;2023-01-05T10:52:23;101409.75;;;-4.60;100.00
50380;BME280;37474;59.468;18.040;2023-01-05T10:54:55;101405.69;;;-4.53;100.00
50380;BME280;37474;59.468;18.040;2023-01-05T10:57:33;101415.84;;;-4.50;100.00
50380;BME280;37474;59.468;18.040;2023-01-05T11:00:15;101396.91;;;-4.69;100.00
50380;BME280;37474;59.468;18.040;2023-01-05T11:02:48;101421.63;;;-4.56;100.00
50380;BME280;37474;59.468;18.040;2023-01-05T11:05:24;101417.38;;;-4.58;100.00
50380;BME280;37474;59.468;18.040;2023-01-05T11:07:55;101417.34;;;-4.60;100.00
50380;BME280;37474;59.468;18.040;2023-01-05T11:10:25;101443.78;;;-4.45;100.00
50380;BME280;37474;59.468;18.040;2023-01-05T11:12:57;101449.03;;;-4.38;100.00
50380;BME280;37474;59.468;18.040;2023-01-05T11:15:39;101460.75;;;-4.41;100.00
50380;BME280;37474;59.468;18.040;2023-01-05T11:18:21;101460.09;;;-4.33;100.00
50380;BME280;37474;59.468;18.040;2023-01-05T11:21:05;101458.06;;;-4.49;100.00
50380;BME280;37474;59.468;18.040;2023-01-05T11:23:35;101470.66;;;-4.51;100.00
50380;BME280;37474;59.468;18.040;2023-01-05T11:26:30;101471.44;;;-4.55;100.00
50380;BME280;37474;59.468;18.040;2023-01-05T11:29:03;101426.88;;;-4.87;100.00
50380;BME280;37474;59.468;18.040;2023-01-05T11:31:39;101487.38;;;-4.59;100.00
50380;BME280;37474;59.468;18.040;2023-01-05T11:34:17;101473.16;;;-4.54;100.00
50380;BME280;37474;59.468;18.040;2023-01-05T11:36:53;101482.22;;;-4.62;100.00
50380;BME280;37474;59.468;18.040;2023-01-05T11:39:28;101483.41;;;-4.84;100.00
50380;BME280;37474;59.468;18.040;2023-01-05T11:42:11;101494.81;;;-4.66;100.00
50380;BME280;37474;59.468;18.040;2023-01-05T11:44:48;101497.09;;;-4.77;100.00
50380;BME280;37474;59.468;18.040;2023-01-05T11:47:20;101509.63;;;-4.82;100.00
50380;BME280;37474;59.468;18.040;2023-01-05T11:49:56;101523.84;;;-4.85;100.00
50380;BME280;37474;59.468;18.040;2023-01-05T11:52:35;101510.09;;;-4.96;100.00
50380;BME280;37474;59.468;18.040;2023-01-05T11:55:26;101523.78;;;-4.88;100.00
50380;BME280;37474;59.468;18.040;2023-01-05T11:58:14;101527.78;;;-4.96;100.00
50380;BME280;37474;59.468;18.040;2023-01-05T12:00:57;101518.34;;;-5.03;100.00
50380;BME280;37474;59.468;18.040;2023-01-05T12:03:40;101538.16;;;-4.87;100.00
50380;BME280;37474;59.468;18.040;2023-01-05T12:06:27;101538.09;;;-4.89;100.00
50380;BME280;37474;59.468;18.040;2023-01-05T12:09:01;101554.09;;;-4.90;100.00
50380;BME280;37474;59.468;18.040;2023-01-05T12:11:38;101539.34;;;-5.06;100.00
50380;BME280;37474;59.468;18.040;2023-01-05T12:14:22;101547.91;;;-5.01;100.00
50380;BME280;37474;59.468;18.040;2023-01-05T12:16:55;101559.53;;;-5.08;100.00
50380;BME280;37474;59.468;18.040;2023-01-05T12:19:56;101552.34;;;-4.92;100.00
50380;BME280;37474;59.468;18.040;2023-01-05T12:22:46;101553.81;;;-5.00;100.00
50380;BME280;37474;59.468;18.040;2023-01-05T12:25:29;101563.16;;;-4.98;100.00
50380;BME280;37474;59.468;18.040;2023-01-05T12:28:15;101556.34;;;-5.00;100.00
50380;BME280;37474;59.468;18.040;2023-01-05T12:34:37;101568.97;;;-5.02;100.00
50380;BME280;37474;59.468;18.040;2023-01-05T12:37:24;101580.59;;;-5.09;100.00
50380;BME280;37474;59.468;18.040;2023-01-05T12:40:08;101544.66;;;-5.28;100.00
50380;BME280;37474;59.468;18.040;2023-01-05T12:45:45;101593.81;;;-5.19;100.00
50380;BME280;37474;59.468;18.040;2023-01-05T12:48:21;101599.88;;;-5.12;100.00
50380;BME280;37474;59.468;18.040;2023-01-05T12:50:57;101609.38;;;-5.03;100.00
50380;BME280;37474;59.468;18.040;2023-01-05T12:53:39;101620.19;;;-5.09;100.00
50380;BME280;37474;59.468;18.040;2023-01-05T12:56:18;101626.78;;;-5.14;100.00
50380;BME280;37474;59.468;18.040;2023-01-05T12:58:51;101619.78;;;-5.24;100.00
50380;BME280;37474;59.468;18.040;2023-01-05T13:01:26;101637.66;;;-5.17;100.00
50380;BME280;37474;59.468;18.040;2023-01-05T13:03:58;101639.31;;;-5.19;100.00
50380;BME280;37474;59.468;18.040;2023-01-05T13:06:34;101651.81;;;-5.23;100.00